createdAt,value
2023-05-06T00:38:29.946Z,1.44
2023-05-06T00:43:39.732Z,1.26
2023-05-06T00:48:55.342Z,1.22
2023-05-06T00:54:11.746Z,1.18
2023-05-06T00:59:28.776Z,1.24
2023-05-06T01:04:44.351Z,1.25
2023-05-06T01:10:01.964Z,1.28
2023-05-06T01:15:17.277Z,1.2
2023-05-06T01:20:35.400Z,1.31
2023-05-06T01:25:51.259Z,1.19
2023-05-06T01:31:08.110Z,1.27
2023-05-06T01:36:23.177Z,1.17
2023-05-06T01:41:40.862Z,1.21
2023-05-06T01:46:57.498Z,1.2
2023-05-06T01:52:13.004Z,1.27
2023-05-06T01:57:29.127Z,1.2
2023-05-06T02:02:44.842Z,1.11
2023-05-06T02:08:01.070Z,1.16
2023-05-06T02:13:17.797Z,1.25
2023-05-06T02:18:34.659Z,1.25
2023-05-06T02:23:51.192Z,1.11
2023-05-06T02:29:06.486Z,1.28
2023-05-06T02:34:23.160Z,1.24
2023-05-06T02:39:39.301Z,1.26
2023-05-06T02:44:55.233Z,1.36
2023-05-06T02:50:12.929Z,1.2
2023-05-06T02:55:28.830Z,1.27
2023-05-06T03:00:45.137Z,1.23
2023-05-06T03:06:01.248Z,1.18
2023-05-06T03:11:16.972Z,1.08
2023-05-06T03:16:39.423Z,1.09
2023-05-06T03:21:55.252Z,1.17
2023-05-06T03:27:11.349Z,1.12
2023-05-06T03:32:29.150Z,1.18
2023-05-06T03:37:45.063Z,1.17
2023-05-06T03:43:04.083Z,1.18
2023-05-06T04:25:24.714Z,1.21
2023-05-06T04:30:34.210Z,1.14
2023-05-06T04:35:50.474Z,1.14
2023-05-06T04:41:05.076Z,1.09
2023-05-06T04:46:21.342Z,1.12
2023-05-06T04:51:37.227Z,1.08
2023-05-06T04:56:54.581Z,1.14
2023-05-06T05:02:12.767Z,1.14
2023-05-06T05:07:30.080Z,1.09
2023-05-06T05:12:45.804Z,1.15
2023-05-06T05:18:03.355Z,1.17
2023-05-06T05:23:18.574Z,1.19
2023-05-06T05:28:36.078Z,1.14
2023-05-06T05:33:52.860Z,1.14
2023-05-06T05:39:09.564Z,1.14
2023-05-06T05:44:26.150Z,1.15
2023-05-06T05:49:43.270Z,1.2
2023-05-06T05:54:59.179Z,1.18
2023-05-06T06:00:17.079Z,1.26
2023-05-06T06:05:32.407Z,1.19
2023-05-06T06:10:49.232Z,1.19
2023-05-06T06:16:06.537Z,1.14
2023-05-06T06:21:22.769Z,1.2
2023-05-06T06:26:39.550Z,1.16
2023-05-06T06:31:56.190Z,1.15
2023-05-06T06:37:11.896Z,1.21
2023-05-06T06:42:27.862Z,1.2
2023-05-06T06:47:44.757Z,1.18
2023-05-06T06:53:00.482Z,1.17
2023-05-06T06:58:17.595Z,1.16
2023-05-06T07:03:34.677Z,1
2023-05-06T07:08:50.133Z,1.1
2023-05-06T07:14:06.678Z,1.03
2023-05-06T07:19:23.704Z,0.96
2023-05-06T07:24:39.998Z,1.05
2023-05-06T08:12:12.442Z,1.07
2023-05-06T08:17:21.966Z,1.04
2023-05-06T08:22:38.275Z,1.04
2023-05-06T08:27:54.027Z,0.96
2023-05-06T08:33:10.270Z,1.01
2023-05-06T08:38:26.759Z,0.98
2023-05-06T08:43:43.639Z,0.96
2023-05-06T08:48:58.751Z,0.86
2023-05-06T08:54:16.543Z,1.03
2023-05-06T08:59:33.311Z,1.03
2023-05-06T09:04:49.471Z,1.09
2023-05-06T09:10:06.949Z,1.12
2023-05-06T09:15:22.852Z,1.01
2023-05-06T09:20:39.145Z,0.89
2023-05-06T09:25:54.529Z,0.9
2023-05-06T09:31:10.163Z,0.81
2023-05-06T09:36:27.180Z,0.84
2023-05-06T09:41:44.670Z,0.85
2023-05-06T09:47:00.415Z,0.75
2023-05-06T09:52:18.883Z,0.78
2023-05-06T09:57:35.180Z,0.77
2023-05-06T10:02:53.059Z,0.73
2023-05-06T10:08:09.400Z,0.8
2023-05-06T10:13:25.582Z,0.8
2023-05-06T10:18:43.936Z,0.78
2023-05-06T10:24:00.939Z,0.78
2023-05-06T10:29:18.668Z,0.79
2023-05-06T10:34:34.098Z,0.79
2023-05-06T10:39:50.589Z,0.77
2023-05-06T10:45:07.091Z,0.76
2023-05-06T10:50:25.714Z,0.78
2023-05-06T10:55:42.057Z,0.68
2023-05-06T11:00:57.720Z,0.78
2023-05-06T11:06:14.614Z,0.74
2023-05-06T11:11:29.984Z,0.77
2023-05-06T11:53:52.237Z,0.79
2023-05-06T11:59:02.182Z,0.74
2023-05-06T12:04:18.369Z,0.69
2023-05-06T12:09:32.987Z,0.74
2023-05-06T12:14:49.403Z,0.72
2023-05-06T12:20:05.315Z,0.75
2023-05-06T13:02:22.042Z,0.84
2023-05-06T13:07:31.421Z,0.8
2023-05-06T13:12:48.363Z,0.77
2023-05-06T13:18:04.325Z,0.81
2023-05-06T13:23:21.256Z,0.74
2023-05-06T13:28:38.370Z,0.78
2023-05-06T13:33:55.968Z,0.77
2023-05-06T13:39:12.113Z,0.76
2023-05-06T13:44:32.211Z,0.79
2023-05-06T13:49:48.755Z,0.79
2023-05-06T13:55:05.605Z,0.81
2023-05-06T14:00:21.418Z,0.82
2023-05-06T14:05:37.307Z,0.81
2023-05-06T14:10:54.379Z,0.83
2023-05-06T14:16:11.583Z,0.86
2023-05-06T14:21:29.051Z,0.78
2023-05-06T14:26:44.575Z,0.79
2023-05-06T14:32:01.882Z,0.79
2023-05-06T14:37:18.276Z,0.81
2023-05-06T14:42:35.348Z,0.85
2023-05-06T14:47:52.435Z,0.87
2023-05-06T14:53:11.302Z,0.87
2023-05-06T14:58:28.171Z,0.87
2023-05-06T15:03:43.788Z,0.87
2023-05-06T15:08:59.795Z,0.85
2023-05-06T15:14:16.541Z,0.88
2023-05-06T15:19:34.123Z,0.83
2023-05-06T15:24:51.101Z,0.82
2023-05-06T15:30:08.201Z,0.83
2023-05-06T15:35:24.579Z,0.86
2023-05-06T15:40:40.762Z,0.82
2023-05-06T15:46:00.752Z,0.83
2023-05-06T15:51:14.624Z,0.9
2023-05-06T15:56:41.921Z,0.82
2023-05-06T16:02:28.068Z,0.88
2023-05-06T16:07:03.161Z,0.96
2023-05-06T16:54:35.181Z,0.84
2023-05-06T16:59:45.230Z,0.84
2023-05-06T17:05:02.278Z,0.89
2023-05-06T17:10:18.199Z,0.85
2023-05-06T17:15:35.945Z,0.84
2023-05-06T17:20:57.559Z,0.77
2023-05-06T17:26:10.817Z,0.84
2023-05-06T17:31:26.760Z,0.82
2023-05-06T17:36:44.347Z,0.84
2023-05-06T17:42:00.762Z,0.86
2023-05-06T17:47:17.421Z,0.82
2023-05-06T17:52:34.529Z,0.83
2023-05-06T17:57:50.990Z,0.78
2023-05-06T18:03:06.554Z,0.83
2023-05-06T18:08:21.135Z,0.85
2023-05-06T18:13:38.079Z,0.9
2023-05-06T18:18:53.901Z,1.16
2023-05-06T18:24:17.195Z,1.17
2023-05-06T18:29:26.670Z,1.19
2023-05-06T18:34:43.533Z,1.12
2023-05-06T18:39:59.954Z,1.1
2023-05-06T18:45:15.401Z,1.18
2023-05-06T18:50:31.233Z,1.14
2023-05-06T18:55:46.827Z,1.07
2023-05-06T19:01:02.777Z,1.01
2023-05-06T19:06:18.106Z,0.98
2023-05-06T19:11:36.506Z,0.93
2023-05-06T19:16:52.162Z,0.98
2023-05-06T19:22:07.586Z,0.87
2023-05-06T19:27:23.595Z,0.92
2023-05-06T19:32:41.548Z,0.9
2023-05-06T19:37:57.475Z,0.99
2023-05-06T19:43:12.630Z,0.99
2023-05-06T19:48:29.413Z,1.07
2023-05-06T19:53:46.204Z,0.98
2023-05-06T19:59:02.102Z,0.95
2023-05-06T20:46:36.388Z,0.96
2023-05-06T20:51:46.129Z,0.93
2023-05-06T20:57:03.482Z,0.98
2023-05-06T21:02:20.063Z,0.84
2023-05-06T21:07:36.315Z,0.96
2023-05-06T21:12:52.856Z,0.94
2023-05-06T21:18:10.723Z,0.97
2023-05-06T21:23:26.079Z,0.96
2023-05-06T21:28:42.813Z,0.94
2023-05-06T21:34:00.326Z,0.94
2023-05-06T21:39:16.810Z,0.98
2023-05-06T21:44:32.927Z,0.97
2023-05-06T21:49:48.986Z,0.92
2023-05-06T21:55:04.603Z,0.9
2023-05-06T22:00:20.980Z,0.93
2023-05-06T22:05:38.344Z,0.94
2023-05-06T22:10:55.198Z,0.9
2023-05-06T22:16:12.571Z,0.97
2023-05-06T22:21:29.074Z,0.93
2023-05-06T22:26:47.778Z,0.95
2023-05-06T22:32:04.024Z,0.99
2023-05-06T22:37:20.234Z,0.98
2023-05-06T22:42:36.267Z,0.92
2023-05-06T22:47:53.499Z,0.96
2023-05-06T22:53:15.996Z,1.02
2023-05-06T22:58:24.271Z,1.06
2023-05-06T23:03:40.659Z,1.1
2023-05-06T23:08:56.136Z,1.16
2023-05-06T23:14:12.024Z,1.2
2023-05-06T23:19:30.660Z,1.2
2023-05-06T23:24:48.615Z,1.21
2023-05-06T23:30:05.770Z,1.23
2023-05-06T23:35:23.235Z,1.28
2023-05-06T23:40:40.610Z,1.23
2023-05-06T23:45:56.978Z,1.32
